Time;durP1;ratioP1;P1;durP2;ratioP2;P2;SDS_P1;SDS_P2;PMS_P1;PMS_P2;Temp;Humidity;BMP_temperature;BMP_pressure;BME280_temperature;BME280_humidity;BME280_pressure;Samples;Min_cycle;Max_cycle;Signal;HPM_P1;HPM_P2
2022/06/23 00:00:33;;;;;;;11.40;4.12;;;;;;;12.25;100.00;99480.27;1479206;97;21110;-89
2022/06/23 00:03:03;;;;;;;7.08;3.80;;;;;;;12.19;100.00;99472.80;1479305;95;21181;-88
2022/06/23 00:05:36;;;;;;;10.10;3.50;;;;;;;12.15;100.00;99475.06;1521914;94;21024;-89
2022/06/23 00:08:02;;;;;;;;;;;;;;;12.06;100.00;99481.70;1478477;96;21064;-89
2022/06/23 00:10:39;;;;;;;6.12;3.62;;;;;;;11.96;100.00;99479.95;1477833;97;20195;-89
2022/06/23 00:13:18;;;;;;;10.60;3.95;;;;;;;11.93;100.00;99480.54;1454346;97;21629;-90
2022/06/23 00:15:44;;;;;;;5.90;3.80;;;;;;;11.94;100.00;99481.34;1451759;98;21155;-88
2022/06/23 00:18:18;;;;;;;8.63;4.17;;;;;;;11.90;100.00;99483.04;1454268;98;21095;-89
2022/06/23 00:20:59;;;;;;;7.22;4.28;;;;;;;11.88;100.00;99485.22;1446429;98;21171;-89
2022/06/23 00:23:41;;;;;;;8.45;4.00;;;;;;;11.86;100.00;99476.09;1451944;98;21179;-89
2022/06/23 00:26:26;;;;;;;8.00;4.15;;;;;;;11.88;100.00;99478.47;1452341;98;21094;-89
2022/06/23 00:29:03;;;;;;;7.72;4.53;;;;;;;11.87;100.00;99472.28;1452128;98;21353;-89
2022/06/23 00:31:46;;;;;;;8.98;5.17;;;;;;;11.90;100.00;99472.23;1487858;94;21171;-90
2022/06/23 00:34:35;;;;;;;11.55;4.55;;;;;;;11.96;100.00;99480.50;1518930;94;21130;-90
2022/06/23 00:37:14;;;;;;;8.55;4.60;;;;;;;12.01;100.00;99481.77;1519016;94;21583;-90
2022/06/23 00:40:00;;;;;;;9.85;5.47;;;;;;;12.09;100.00;99495.12;1520291;94;21090;-90
2022/06/23 00:42:38;;;;;;;10.25;5.25;;;;;;;12.16;100.00;99492.86;1521209;94;21147;-90
2022/06/23 00:45:31;;;;;;;11.12;5.83;;;;;;;12.30;100.00;99495.59;1528888;93;21014;-90
2022/06/23 00:48:20;;;;;;;10.63;5.65;;;;;;;12.41;100.00;99499.16;1508007;95;21095;-90
2022/06/23 00:50:55;;;;;;;12.60;5.67;;;;;;;12.53;100.00;99508.13;1515780;94;21105;-90
2022/06/23 00:53:50;;;;;;;10.68;5.50;;;;;;;12.66;100.00;99499.20;1515880;94;21261;-91
2022/06/23 00:56:42;;;;;;;9.55;5.28;;;;;;;12.80;100.00;99501.12;1516115;94;21187;-90
2022/06/23 00:59:35;;;;;;;10.45;5.65;;;;;;;12.89;100.00;99503.36;1534392;93;21111;-90
2022/06/23 01:02:09;;;;;;;10.82;5.85;;;;;;;12.96;100.00;99502.39;1537281;93;21073;-90
2022/06/23 01:05:05;;;;;;;9.85;5.92;;;;;;;13.08;100.00;99500.52;1536441;93;21170;-90
2022/06/23 01:08:05;;;;;;;12.85;6.33;;;;;;;13.18;100.00;99501.66;1514298;94;21017;-91
2022/06/23 01:11:10;;;;;;;10.40;5.85;;;;;;;13.30;100.00;99507.94;1514469;94;21197;-90
2022/06/23 01:14:03;;;;;;;12.68;6.85;;;;;;;13.38;100.00;99509.37;1514178;94;21110;-90
2022/06/23 01:16:43;;;;;;;13.75;7.58;;;;;;;13.47;100.00;99514.03;1516204;91;21165;-91
2022/06/23 01:19:36;;;;;;;11.73;6.55;;;;;;;13.53;100.00;99505.52;1598601;89;21123;-90
2022/06/23 01:22:07;;;;;;;13.10;7.20;;;;;;;13.60;100.00;99500.45;1599594;89;21107;-91
2022/06/23 01:25:11;;;;;;;14.70;6.90;;;;;;;13.66;100.00;99507.11;1599628;88;21325;-90
2022/06/23 01:28:00;;;;;;;13.50;7.12;;;;;;;13.73;100.00;99503.41;1580524;90;21623;-91
2022/06/23 01:30:35;;;;;;;14.00;6.80;;;;;;;13.80;100.00;99503.80;1580687;90;21640;-91
2022/06/23 01:33:18;;;;;;;15.05;7.35;;;;;;;13.84;100.00;99500.71;1585441;90;21053;-90
2022/06/23 01:35:55;;;;;;;16.45;7.58;;;;;;;13.90;100.00;99504.89;1626297;87;21589;-91
2022/06/23 01:38:39;;;;;;;12.43;7.40;;;;;;;13.91;100.00;99502.41;1640334;87;21371;-92
2022/06/23 01:41:10;;;;;;;13.08;6.95;;;;;;;13.93;100.00;99509.69;1612138;88;21064;-91
2022/06/23 01:43:40;;;;;;;16.40;7.17;;;;;;;13.98;100.00;99516.34;1539509;93;21115;-93
2022/06/23 01:46:18;;;;;;;17.75;7.65;;;;;;;14.03;100.00;99518.11;1537796;92;21647;-92
2022/06/23 01:48:52;;;;;;;16.17;7.62;;;;;;;14.07;100.00;99522.61;1516712;94;21602;-91
2022/06/23 01:51:47;;;;;;;11.43;6.35;;;;;;;14.14;100.00;99523.52;1513851;94;22109;-92
2022/06/23 01:54:24;;;;;;;13.58;7.33;;;;;;;14.18;100.00;99524.52;1519120;93;21106;-90
2022/06/23 01:57:15;;;;;;;17.23;7.55;;;;;;;14.21;100.00;99525.81;1516868;94;21094;-90
2022/06/23 01:59:55;;;;;;;15.85;7.53;;;;;;;14.22;100.00;99525.48;1519629;93;21269;-92
2022/06/23 02:02:45;;;;;;;14.43;7.97;;;;;;;14.17;100.00;99535.66;1518049;93;21680;-92
2022/06/23 02:05:46;;;;;;;14.95;7.47;;;;;;;14.19;100.00;99532.09;1537566;93;21919;-91
2022/06/23 02:08:44;;;;;;;14.35;7.42;;;;;;;14.25;100.00;99530.28;1537212;93;21692;-91
2022/06/23 02:11:42;;;;;;;15.90;7.80;;;;;;;14.34;100.00;99530.34;1537516;93;21049;-91
2022/06/23 02:14:39;;;;;;;12.23;7.03;;;;;;;14.40;100.00;99531.80;1537276;93;21168;-91
2022/06/23 02:17:42;;;;;;;12.35;7.47;;;;;;;14.48;100.00;99535.11;1537327;93;21748;-92
2022/06/23 02:20:40;;;;;;;12.60;7.03;;;;;;;14.54;100.00;99529.83;1537538;93;21369;-91
2022/06/23 02:23:28;;;;;;;13.55;7.08;;;;;;;14.46;100.00;99521.06;1537287;93;21159;-91
2022/06/23 02:26:12;;;;;;;12.60;7.10;;;;;;;14.43;100.00;99525.75;1537607;93;21202;-91
2022/06/23 02:28:44;;;;;;;;;;;;;;;14.44;100.00;99535.50;1538437;93;21636;-91
2022/06/23 02:31:18;;;;;;;11.80;6.78;;;;;;;14.47;100.00;99544.91;1532685;93;20180;-91
2022/06/23 02:34:20;;;;;;;11.85;6.53;;;;;;;14.49;100.00;99543.48;1537385;91;21177;-91
2022/06/23 02:37:03;;;;;;;13.35;7.12;;;;;;;14.50;100.00;99541.03;1515433;93;21064;-92
2022/06/23 02:39:52;;;;;;;12.30;6.62;;;;;;;14.49;100.00;99549.47;1540538;89;21125;-92
2022/06/23 02:42:32;;;;;;;12.10;7.10;;;;;;;14.47;100.00;99553.03;1583405;90;21661;-92
2022/06/23 02:45:04;;;;;;;12.73;7.22;;;;;;;14.53;100.00;99547.78;1610155;86;21187;-91
2022/06/23 02:48:13;;;;;;;13.93;7.33;;;;;;;14.63;100.00;99552.13;1652522;85;21342;-91
2022/06/23 02:51:14;;;;;;;13.45;7.15;;;;;;;14.63;100.00;99552.13;1665172;86;21594;-92
2022/06/23 02:54:08;;;;;;;12.15;6.90;;;;;;;14.67;100.00;99554.44;1705341;84;21015;-89
2022/06/23 02:57:14;;;;;;;13.43;6.65;;;;;;;14.68;100.00;99553.34;1709443;84;21042;-91
2022/06/23 03:00:09;;;;;;;12.63;7.28;;;;;;;14.66;100.00;99553.64;1709390;84;21070;-89
2022/06/23 03:02:55;;;;;;;11.93;7.22;;;;;;;14.76;100.00;99552.56;1706576;83;21100;-90
2022/06/23 03:05:46;;;;;;;10.28;6.28;;;;;;;14.96;100.00;99550.64;1708753;83;21066;-91
2022/06/23 03:08:35;;;;;;;10.23;6.10;;;;;;;15.02;100.00;99560.00;1708208;84;21630;-90
2022/06/23 03:11:09;;;;;;;10.18;6.20;;;;;;;15.01;100.00;99555.13;1709540;84;21607;-89
2022/06/23 03:13:47;;;;;;;12.47;6.97;;;;;;;15.14;100.00;99551.48;1723315;81;20999;-89
2022/06/23 03:16:27;;;;;;;12.53;6.30;;;;;;;15.06;100.00;99555.53;1769403;81;21523;-89
2022/06/23 03:19:03;;;;;;;10.32;6.12;;;;;;;15.17;100.00;99556.84;1763964;81;21564;-89
2022/06/23 03:21:49;;;;;;;10.05;6.10;;;;;;;15.35;100.00;99563.92;1766969;81;20964;-88
2022/06/23 03:24:41;;;;;;;11.20;6.20;;;;;;;15.59;100.00;99568.11;1769348;81;21054;-89
2022/06/23 03:27:36;;;;;;;13.22;6.28;;;;;;;15.78;100.00;99560.45;1715101;83;21831;-89
2022/06/23 03:30:08;;;;;;;9.53;5.47;;;;;;;16.12;100.00;99562.92;1676458;84;22148;-88
2022/06/23 03:32:49;;;;;;;9.18;5.62;;;;;;;16.58;100.00;99558.07;1712193;83;21051;-91
2022/06/23 03:35:23;;;;;;;9.93;5.85;;;;;;;16.76;100.00;99551.23;1713310;83;21146;-93
2022/06/23 03:37:57;;;;;;;12.95;6.72;;;;;;;16.61;100.00;99559.91;1715017;83;21246;-93
2022/06/23 03:43:33;;;;;;;10.03;6.03;;;;;;;16.48;100.00;99565.23;1585493;90;21102;-95
2022/06/23 03:46:35;;;;;;;7.87;4.97;;;;;;;16.45;100.00;99574.05;1600309;89;21167;-91
2022/06/23 03:49:37;;;;;;;15.00;5.97;;;;;;;16.24;100.00;99584.81;1606712;89;21021;-90
2022/06/23 03:52:14;;;;;;;12.53;5.75;;;;;;;16.07;100.00;99591.06;1610257;89;21606;-90
2022/06/23 03:54:54;;;;;;;8.65;5.67;;;;;;;16.24;100.00;99589.45;1607768;89;21053;-90
2022/06/23 03:57:31;;;;;;;9.00;5.05;;;;;;;16.27;100.00;99586.88;1622315;84;21611;-90
2022/06/23 04:00:24;;;;;;;8.50;5.60;;;;;;;16.37;100.00;99595.82;1674862;85;20978;-88
2022/06/23 04:03:18;;;;;;;10.18;5.85;;;;;;;16.55;100.00;99600.09;1675042;85;21089;-90
2022/06/23 04:06:35;;;;;;;9.30;5.30;;;;;;;16.65;100.00;99597.58;1648364;85;21135;-88
2022/06/23 04:09:27;;;;;;;11.50;5.37;;;;;;;16.61;100.00;99592.56;1648428;87;21542;-88
2022/06/23 04:12:10;;;;;;;9.33;4.90;;;;;;;16.69;100.00;99599.90;1648156;87;22170;-89
2022/06/23 04:14:53;;;;;;;9.33;5.45;;;;;;;16.84;100.00;99597.23;1645801;87;21534;-88
2022/06/23 04:17:41;;;;;;;9.08;5.75;;;;;;;16.93;100.00;99604.80;1625880;87;21080;-90
2022/06/23 04:20:15;;;;;;;12.18;5.72;;;;;;;16.92;100.00;99610.02;1655485;85;20983;-90
2022/06/23 04:22:52;;;;;;;10.75;6.10;;;;;;;16.76;100.00;99614.61;1681694;83;21081;-89
2022/06/23 04:25:23;;;;;;;8.95;5.47;;;;;;;16.67;100.00;99618.46;1722451;83;21853;-92
2022/06/23 04:27:59;;;;;;;10.08;5.80;;;;;;;16.56;100.00;99618.82;1698163;83;21037;-90
2022/06/23 04:30:35;;;;;;;8.98;5.78;;;;;;;16.51;100.00;99612.75;1722441;83;21078;-92
2022/06/23 04:33:06;;;;;;;9.55;5.58;;;;;;;16.66;100.00;99619.02;1734922;82;21061;-87
2022/06/23 04:35:38;;;;;;;12.23;6.08;;;;;;;16.84;100.00;99626.61;1735242;82;21109;-92
2022/06/23 04:38:12;;;;;;;9.90;5.10;;;;;;;16.96;100.00;99630.80;1735277;82;22059;-88
2022/06/23 04:40:47;;;;;;;11.73;5.87;;;;;;;17.10;100.00;99628.44;1728121;82;21089;-89
2022/06/23 04:43:17;;;;;;;11.15;5.33;;;;;;;17.25;100.00;99628.67;1749105;80;21511;-88
2022/06/23 04:46:18;;;;;;;10.23;6.12;;;;;;;17.30;100.00;99626.91;1762780;81;21075;-90
2022/06/23 04:48:49;;;;;;;10.20;6.12;;;;;;;17.34;100.00;99629.20;1762937;81;21003;-90
2022/06/23 04:51:36;;;;;;;8.93;6.10;;;;;;;17.52;100.00;99630.69;1759312;81;21151;-88
2022/06/23 04:54:25;;;;;;;14.60;6.87;;;;;;;17.75;100.00;99633.11;1711497;83;21013;-88
2022/06/23 04:57:05;;;;;;;10.78;6.42;;;;;;;17.98;100.00;99633.63;1711847;83;21096;-87
2022/06/23 04:59:51;;;;;;;10.68;6.22;;;;;;;18.20;100.00;99631.89;1709532;83;21506;-90
2022/06/23 05:02:29;;;;;;;10.75;6.55;;;;;;;18.45;100.00;99635.53;1709061;83;21044;-89
2022/06/23 05:05:06;;;;;;;9.90;6.47;;;;;;;18.45;100.00;99641.55;1708491;83;21013;-89
2022/06/23 05:07:45;;;;;;;8.28;5.67;;;;;;;18.34;100.00;99641.95;1612707;89;21011;-89
2022/06/23 05:10:26;;;;;;;9.35;5.87;;;;;;;18.57;100.00;99640.22;1606925;89;21058;-88
2022/06/23 05:12:57;;;;;;;9.98;6.35;;;;;;;18.77;100.00;99642.70;1600152;89;21130;-88
2022/06/23 05:15:36;;;;;;;9.98;6.12;;;;;;;18.97;100.00;99656.84;1597303;89;21141;-88
2022/06/23 05:18:13;;;;;;;10.72;6.10;;;;;;;19.11;100.00;99652.98;1600135;89;21169;-88
2022/06/23 05:20:59;;;;;;;9.78;5.50;;;;;;;19.41;100.00;99655.73;1595654;88;21069;-88
2022/06/23 05:23:31;;;;;;;8.95;5.55;;;;;;;19.76;100.00;99653.09;1599160;89;21528;-87
2022/06/23 05:26:08;;;;;;;8.38;5.42;;;;;;;20.15;100.00;99651.53;1503297;95;21409;-89
2022/06/23 05:28:37;;;;;;;7.75;4.20;;;;;;;20.89;100.00;99653.37;1512594;93;21640;-87
2022/06/23 05:31:07;;;;;;;7.40;4.55;;;;;;;22.77;100.00;99651.63;1522344;94;21400;-88
2022/06/23 05:33:43;;;;;;;7.92;3.77;;;;;;;24.64;100.00;99660.05;1522715;94;21087;-88
2022/06/23 05:36:26;;;;;;;6.67;3.90;;;;;;;25.57;100.00;99649.25;1522522;94;21031;-89
2022/06/23 05:39:06;;;;;;;4.78;3.30;;;;;;;25.54;95.28;99650.61;1522647;94;21659;-88
2022/06/23 05:41:43;;;;;;;6.10;3.30;;;;;;;25.08;89.15;99647.66;1518422;92;21706;-87
2022/06/23 05:44:18;;;;;;;4.95;3.67;;;;;;;25.13;91.30;99645.16;1539149;88;21204;-90
2022/06/23 05:46:45;;;;;;;4.90;3.47;;;;;;;26.62;92.62;99637.52;1556879;92;21127;-88
2022/06/23 05:49:22;;;;;;;3.83;3.08;;;;;;;27.91;83.48;99641.60;1557523;92;21044;-90
2022/06/23 05:52:12;;;;;;;3.15;2.83;;;;;;;29.03;72.65;99642.61;1557517;92;21158;-90
2022/06/23 05:55:02;;;;;;;5.62;3.10;;;;;;;29.18;65.63;99630.81;1555542;92;21078;-91
2022/06/23 05:57:42;;;;;;;3.50;2.40;;;;;;;29.84;62.67;99638.88;1555695;92;21873;-90
2022/06/23 06:00:32;;;;;;;7.35;2.80;;;;;;;30.59;61.27;99632.17;1556000;92;21068;-87
2022/06/23 06:03:09;;;;;;;4.65;2.55;;;;;;;32.01;56.15;99633.14;1557678;90;21068;-90
2022/06/23 06:05:39;;;;;;;8.08;2.50;;;;;;;32.30;49.72;99636.11;1555456;92;21078;-88
2022/06/23 06:08:13;;;;;;;4.53;2.22;;;;;;;32.23;48.72;99646.62;1555843;92;20984;-89
2022/06/23 06:10:41;;;;;;;4.85;2.72;;;;;;;31.55;46.31;99645.95;1558064;90;21173;-92
2022/06/23 06:13:27;;;;;;;3.70;2.80;;;;;;;30.16;45.38;99654.99;1555517;92;21040;-92
2022/06/23 06:15:57;;;;;;;3.35;3.00;;;;;;;29.03;47.30;99661.24;1555994;90;21158;-89
2022/06/23 06:18:39;;;;;;;2.92;2.55;;;;;;;30.00;47.25;99656.95;1555779;92;21111;-89
2022/06/23 06:21:09;;;;;;;3.10;2.35;;;;;;;30.85;48.89;99655.66;1550807;92;21102;-91
2022/06/23 06:23:49;;;;;;;2.05;1.85;;;;;;;31.70;44.91;99654.82;1593886;89;21194;-89
2022/06/23 06:26:19;;;;;;;3.87;1.90;;;;;;;32.05;44.89;99652.58;1603932;89;21025;-91
2022/06/23 06:28:45;;;;;;;1.98;1.77;;;;;;;32.94;42.87;99654.78;1605365;89;21036;-91
2022/06/23 06:31:38;;;;;;;2.75;2.10;;;;;;;33.89;40.54;99656.95;1605938;89;21034;-89
2022/06/23 06:34:39;;;;;;;2.00;1.90;;;;;;;34.42;41.14;99656.65;1602480;89;21236;-87
2022/06/23 06:37:09;;;;;;;1.52;1.42;;;;;;;35.32;38.10;99655.20;1604965;89;21181;-87
2022/06/23 06:39:46;;;;;;;1.22;1.12;;;;;;;35.79;36.59;99661.39;1605613;89;21615;-90
2022/06/23 06:42:23;;;;;;;1.50;1.40;;;;;;;34.91;34.47;99666.11;1589059;89;21083;-90
2022/06/23 06:44:53;;;;;;;1.87;1.50;;;;;;;33.38;34.65;99667.88;1519868;92;21101;-89
2022/06/23 06:47:24;;;;;;;1.17;1.00;;;;;;;33.29;35.67;99671.91;1515121;93;21155;-90
2022/06/23 06:49:58;;;;;;;2.75;1.60;;;;;;;32.95;35.44;99673.13;1515650;93;21134;-90
2022/06/23 06:52:26;;;;;;;1.20;1.20;;;;;;;33.40;35.31;99679.41;1518981;94;21080;-89
2022/06/23 06:55:05;;;;;;;1.40;1.30;;;;;;;34.26;35.60;99670.72;1519234;94;21113;-92
2022/06/23 06:57:42;;;;;;;3.52;1.50;;;;;;;35.03;34.53;99668.14;1523062;91;21211;-88
2022/06/23 07:00:17;;;;;;;1.22;1.12;;;;;;;35.32;34.53;99679.02;1581869;90;21100;-89
2022/06/23 07:02:48;;;;;;;1.45;1.30;;;;;;;35.94;33.65;99669.44;1557792;92;21113;-89
2022/06/23 07:05:50;;;;;;;1.42;1.32;;;;;;;36.00;33.52;99668.23;1528756;93;21083;-89
2022/06/23 07:08:42;;;;;;;1.72;1.40;;;;;;;36.72;32.03;99671.33;1531591;93;21086;-91
2022/06/23 07:11:30;;;;;;;1.40;1.30;;;;;;;35.78;30.77;99668.25;1541298;91;21073;-90
2022/06/23 07:14:11;;;;;;;1.98;1.47;;;;;;;35.49;31.90;99664.39;1556262;92;21118;-89
2022/06/23 07:16:57;;;;;;;1.70;1.42;;;;;;;36.12;31.20;99658.98;1556191;92;21120;-89
2022/06/23 07:19:34;;;;;;;1.50;1.40;;;;;;;36.79;29.71;99658.39;1539619;93;21126;-90
2022/06/23 07:22:23;;;;;;;3.02;1.50;;;;;;;36.06;29.69;99653.21;1539657;93;21574;-88
2022/06/23 07:25:12;;;;;;;4.97;1.45;;;;;;;36.06;29.69;99653.21;1539087;93;21150;-92
2022/06/23 07:28:02;;;;;;;5.72;1.60;;;;;;;36.41;28.95;99667.09;1546788;92;21082;-89
2022/06/23 07:30:35;;;;;;;2.50;1.45;;;;;;;36.00;28.39;99677.42;1545106;92;21406;-89
2022/06/23 07:33:13;;;;;;;2.33;1.30;;;;;;;35.30;28.66;99681.48;1476364;97;21175;-87
2022/06/23 07:36:11;;;;;;;1.72;1.62;;;;;;;35.09;29.92;99696.37;1476593;95;21673;-90
2022/06/23 07:39:00;;;;;;;1.37;1.27;;;;;;;36.08;30.04;99691.39;1411517;101;21244;-87
2022/06/23 07:41:43;;;;;;;3.17;1.50;;;;;;;36.34;28.41;99692.02;1423774;99;21160;-92
2022/06/23 07:44:17;;;;;;;1.75;1.52;;;;;;;35.79;27.87;99698.63;1420696;99;21076;-89
2022/06/23 07:46:43;;;;;;;2.20;1.70;;;;;;;35.10;28.08;99695.16;1419621;101;21125;-88
2022/06/23 07:49:09;;;;;;;1.70;1.60;;;;;;;34.78;28.10;99705.95;1459181;96;20924;-87
2022/06/23 07:51:37;;;;;;;1.85;1.60;;;;;;;34.53;28.87;99705.28;1460209;98;21014;-91
2022/06/23 07:54:05;;;;;;;2.45;1.50;;;;;;;34.90;28.82;99707.19;1485597;96;21079;-88
2022/06/23 07:56:34;;;;;;;4.12;1.30;;;;;;;35.42;28.84;99709.49;1485499;96;21083;-89
2022/06/23 07:59:11;;;;;;;2.08;1.30;;;;;;;36.09;27.83;99707.00;1467401;96;21076;-88
2022/06/23 08:01:51;;;;;;;4.25;1.57;;;;;;;36.28;27.28;99704.30;1482626;96;21077;-91
2022/06/23 08:04:34;;;;;;;1.67;1.40;;;;;;;36.77;27.89;99703.63;1483050;96;21141;-87
2022/06/23 08:07:04;;;;;;;1.85;1.50;;;;;;;37.68;27.03;99712.15;1486851;96;21600;-90
2022/06/23 08:09:52;;;;;;;3.00;1.80;;;;;;;37.64;26.55;99722.78;1523319;92;21307;-89
2022/06/23 08:18:38;;;;;;;0.90;0.90;;;;;;;35.10;26.76;99733.59;1545570;92;21069;-90
2022/06/23 08:21:24;;;;;;;1.42;1.32;;;;;;;35.26;26.97;99734.84;1545489;92;21100;-92
2022/06/23 08:24:18;;;;;;;1.35;1.25;;;;;;;34.73;26.75;99736.67;1545816;92;21603;-85
2022/06/23 08:26:48;;;;;;;1.50;1.17;;;;;;;34.95;26.89;99748.02;1449991;98;21147;-91
2022/06/23 08:29:19;;;;;;;1.30;1.20;;;;;;;35.13;27.95;99748.87;1466855;93;21131;-91
2022/06/23 08:31:46;;;;;;;1.30;1.20;;;;;;;35.74;26.65;99746.08;1535934;93;21114;-86
2022/06/23 08:34:12;;;;;;;1.20;1.05;;;;;;;35.61;27.24;99754.54;1536026;93;21048;-92
2022/06/23 08:36:49;;;;;;;1.25;1.15;;;;;;;34.73;26.33;99749.27;1535753;93;21200;-86
2022/06/23 08:39:26;;;;;;;0.95;0.93;;;;;;;34.54;27.48;99751.64;1535675;93;21064;-89
2022/06/23 08:42:00;;;;;;;1.20;1.10;;;;;;;33.17;27.65;99755.00;1536127;92;21209;-91
2022/06/23 08:45:07;;;;;;;3.22;1.32;;;;;;;32.72;29.10;99754.20;1533668;93;21009;-90
2022/06/23 08:48:09;;;;;;;1.37;1.00;;;;;;;32.89;29.38;99759.22;1536454;93;21118;-87
2022/06/23 08:50:56;;;;;;;9.98;1.30;;;;;;;32.18;28.83;99757.26;1536729;93;21226;-91
2022/06/23 08:53:36;;;;;;;0.80;0.80;;;;;;;31.54;29.46;99761.38;1536774;93;21076;-91
2022/06/23 08:56:14;;;;;;;1.50;0.88;;;;;;;31.35;30.57;99760.08;1485840;96;21510;-91
2022/06/23 08:58:57;;;;;;;0.98;0.90;;;;;;;31.49;30.78;99756.89;1507992;93;21064;-91
2022/06/23 09:01:50;;;;;;;1.42;0.80;;;;;;;31.66;30.34;99762.16;1513630;94;21577;-87
2022/06/23 09:04:24;;;;;;;0.90;0.90;;;;;;;31.85;30.35;99768.20;1506303;94;21096;-90
2022/06/23 09:06:58;;;;;;;1.10;1.00;;;;;;;31.98;30.16;99777.56;1451439;98;21137;-92
2022/06/23 09:10:06;;;;;;;1.27;0.80;;;;;;;32.12;30.04;99770.91;1415610;101;21412;-90
2022/06/23 09:12:50;;;;;;;1.85;0.80;;;;;;;31.74;29.89;99782.91;1415546;101;21169;-93
2022/06/23 09:15:41;;;;;;;1.77;0.93;;;;;;;31.41;30.48;99783.48;1415493;101;21164;-91
2022/06/23 09:18:27;;;;;;;1.40;0.88;;;;;;;30.88;31.17;99792.55;1415497;101;21212;-87
2022/06/23 09:21:30;;;;;;;1.27;0.90;;;;;;;30.40;31.11;99797.70;1428376;100;21168;-88
2022/06/23 09:24:30;;;;;;;0.90;0.70;;;;;;;29.33;31.30;99812.69;1427506;100;21135;-88
2022/06/23 09:27:22;;;;;;;1.95;1.12;;;;;;;28.21;32.94;99799.05;1427617;100;21151;-88
2022/06/23 09:29:56;;;;;;;1.13;0.70;;;;;;;28.07;34.12;99804.61;1383027;103;21313;-96
2022/06/23 09:32:36;;;;;;;1.10;0.65;;;;;;;28.14;34.45;99798.27;1384826;100;21254;-92
2022/06/23 09:35:28;;;;;;;2.47;0.82;;;;;;;28.45;34.49;99802.97;1423037;100;21054;-91
2022/06/23 09:38:25;;;;;;;3.72;1.00;;;;;;;28.55;34.48;99806.89;1420292;100;21221;-91
2022/06/23 09:41:49;;;;;;;1.12;1.00;;;;;;;28.28;34.44;99810.70;1420467;99;21368;-95
2022/06/23 09:44:44;;;;;;;1.12;0.90;;;;;;;28.05;34.82;99816.68;1375772;104;21236;-92
2022/06/23 09:47:32;;;;;;;2.92;0.80;;;;;;;28.30;35.30;99815.27;1408874;101;21245;-86
2022/06/23 09:50:09;;;;;;;0.98;0.90;;;;;;;28.26;35.74;99808.92;1379099;104;21062;-90
2022/06/23 09:52:57;;;;;;;2.10;0.85;;;;;;;28.64;36.03;99812.80;1411228;101;21191;-91
2022/06/23 09:55:46;;;;;;;2.20;0.90;;;;;;;28.92;35.87;99814.67;1383450;102;21225;-87
2022/06/23 09:58:44;;;;;;;1.07;0.78;;;;;;;29.28;36.10;99822.03;1457679;98;21087;-93
2022/06/23 10:01:43;;;;;;;1.98;0.98;;;;;;;29.25;35.32;99824.23;1453046;98;21250;-93
2022/06/23 10:04:36;;;;;;;1.87;1.00;;;;;;;29.40;35.01;99823.73;1470800;95;21028;-90
2022/06/23 10:07:07;;;;;;;2.90;1.10;;;;;;;28.94;35.24;99819.22;1660266;83;21038;-90
2022/06/23 10:09:50;;;;;;;1.95;0.80;;;;;;;28.65;35.38;99819.13;1725703;82;21061;-93
2022/06/23 10:12:37;;;;;;;1.95;1.00;;;;;;;28.55;35.42;99819.97;1729907;82;21039;-89
2022/06/23 10:15:26;;;;;;;1.98;1.02;;;;;;;28.76;35.08;99827.59;1748126;82;21140;-91
2022/06/23 10:18:12;;;;;;;1.40;1.00;;;;;;;28.32;35.47;99822.56;1729215;82;21857;-94
2022/06/23 10:20:56;;;;;;;1.02;0.90;;;;;;;28.51;36.21;99829.69;1731139;82;21086;-91
2022/06/23 10:23:30;;;;;;;0.72;0.72;;;;;;;28.97;36.42;99837.84;1695294;84;21062;-88
2022/06/23 10:26:16;;;;;;;3.08;0.70;;;;;;;28.73;35.62;99831.17;1667633;85;21025;-87
2022/06/23 10:29:18;;;;;;;1.30;0.70;;;;;;;28.38;35.01;99838.98;1667121;85;21845;-89
2022/06/23 10:32:27;;;;;;;0.98;0.70;;;;;;;27.45;35.96;99848.69;1673163;85;21037;-90
2022/06/23 10:35:32;;;;;;;1.60;0.70;;;;;;;27.17;36.38;99842.48;1679783;84;21074;-91
2022/06/23 10:38:47;;;;;;;1.95;0.90;;;;;;;27.32;36.68;99833.63;1696630;84;21121;-96
2022/06/23 10:41:41;;;;;;;2.45;0.88;;;;;;;27.30;36.79;99836.80;1694768;84;21125;-88
2022/06/23 10:44:30;;;;;;;3.12;0.93;;;;;;;27.51;37.45;99834.66;1691761;84;22014;-89
2022/06/23 10:47:38;;;;;;;1.95;0.90;;;;;;;27.75;37.29;99841.99;1615715;88;21057;-91
2022/06/23 10:50:24;;;;;;;3.72;0.80;;;;;;;27.56;37.07;99834.84;1615635;88;21053;-92
2022/06/23 10:53:34;;;;;;;1.45;0.88;;;;;;;27.34;37.82;99842.33;1615964;88;21551;-92
2022/06/23 10:56:20;;;;;;;1.95;1.20;;;;;;;27.67;37.82;99834.86;1616055;88;21160;-86
2022/06/23 10:59:01;;;;;;;2.05;1.00;;;;;;;27.57;37.21;99844.75;1605286;89;21102;-88
2022/06/23 11:02:07;;;;;;;3.25;0.70;;;;;;;27.79;37.49;99840.81;1605315;89;21088;-88
2022/06/23 11:04:55;;;;;;;6.72;1.10;;;;;;;28.14;37.65;99839.22;1605793;89;21001;-91
2022/06/23 11:07:43;;;;;;;7.00;0.80;;;;;;;28.52;36.93;99842.34;1605361;89;21573;-90
2022/06/23 11:10:41;;;;;;;1.70;0.50;;;;;;;28.46;35.83;99844.73;1526099;93;22022;-95
2022/06/23 11:13:52;;;;;;;1.27;0.80;;;;;;;27.98;36.83;99849.34;1524563;94;21205;-95
2022/06/23 11:17:07;;;;;;;1.12;0.82;;;;;;;28.04;36.46;99855.27;1520077;94;21110;-93
2022/06/23 11:19:48;;;;;;;1.57;0.70;;;;;;;27.57;37.51;99855.82;1525098;93;21067;-91
2022/06/23 11:22:37;;;;;;;1.52;0.60;;;;;;;27.90;37.75;99849.73;1533122;93;21155;-91
2022/06/23 11:25:47;;;;;;;3.67;1.00;;;;;;;28.26;37.52;99856.03;1517495;93;21116;-89
2022/06/23 11:28:58;;;;;;;2.02;0.68;;;;;;;28.49;36.59;99855.02;1503700;94;21314;-89
2022/06/23 11:31:52;;;;;;;1.60;0.65;;;;;;;28.15;36.12;99862.17;1507897;95;21590;-92
2022/06/23 11:34:47;;;;;;;10.58;1.00;;;;;;;27.57;36.00;99864.91;1504946;94;21098;-88
2022/06/23 11:38:09;;;;;;;1.25;0.70;;;;;;;27.31;36.51;99860.50;1518051;93;21684;-93
2022/06/23 11:41:17;;;;;;;1.62;0.60;;;;;;;27.12;37.50;99860.80;1501316;94;38135;-90
2022/06/23 11:44:29;;;;;;;0.93;0.60;;;;;;;27.17;37.68;99864.61;1508683;95;21176;-93
2022/06/23 11:47:12;;;;;;;1.62;0.62;;;;;;;27.30;37.37;99862.30;1508591;95;21284;-87
2022/06/23 11:50:06;;;;;;;3.30;0.80;;;;;;;27.43;37.37;99868.24;1507620;95;21070;-90
2022/06/23 11:52:58;;;;;;;0.70;0.62;;;;;;;27.19;37.08;99863.64;1508914;95;21145;-92
2022/06/23 11:55:38;;;;;;;1.35;0.80;;;;;;;26.78;37.54;99868.58;1508869;95;21137;-89
2022/06/23 11:58:30;;;;;;;3.55;0.80;;;;;;;26.38;38.52;99868.31;1507338;95;21131;-91
2022/06/23 12:01:14;;;;;;;5.53;1.15;;;;;;;26.25;38.96;99869.22;1528867;92;21051;-88
2022/06/23 12:04:17;;;;;;;0.88;0.70;;;;;;;26.19;38.44;99879.04;1522986;93;21050;-88
2022/06/23 12:07:17;;;;;;;1.45;0.65;;;;;;;25.93;38.59;99886.13;1549977;89;21069;-93
2022/06/23 12:10:14;;;;;;;0.98;0.70;;;;;;;25.78;38.64;99879.06;1624146;88;21060;-94
2022/06/23 12:12:45;;;;;;;0.90;0.40;;;;;;;25.87;38.26;99884.89;1624078;88;21226;-94
2022/06/23 12:15:20;;;;;;;4.53;0.98;;;;;;;25.78;38.53;99888.72;1600963;88;21581;-92
2022/06/23 12:17:52;;;;;;;4.75;0.70;;;;;;;25.79;38.83;99891.69;1589412;90;21427;-92
2022/06/23 12:20:35;;;;;;;1.07;0.70;;;;;;;25.95;38.92;99890.69;1576079;90;21029;-89
2022/06/23 12:23:41;;;;;;;0.80;0.50;;;;;;;26.21;39.25;99884.20;1577251;90;21093;-90
2022/06/23 12:26:20;;;;;;;2.05;0.70;;;;;;;26.39;38.98;99887.08;1579182;90;21113;-93
2022/06/23 12:28:52;;;;;;;1.02;0.50;;;;;;;26.65;39.18;99892.41;1579082;90;21282;-87
2022/06/23 12:31:23;;;;;;;1.42;0.60;;;;;;;26.55;37.84;99886.22;1554740;92;21114;-88
2022/06/23 12:34:10;;;;;;;0.68;0.55;;;;;;;26.40;39.29;99883.92;1557044;92;21090;-89
2022/06/23 12:37:04;;;;;;;0.93;0.50;;;;;;;26.72;39.63;99891.06;1534278;93;21215;-85
2022/06/23 12:39:53;;;;;;;2.33;0.70;;;;;;;26.49;36.42;99877.49;1535702;93;21139;-89
2022/06/23 12:42:39;;;;;;;0.93;0.50;;;;;;;26.18;37.25;99891.28;1572832;90;21125;-89
2022/06/23 12:45:36;;;;;;;1.20;0.70;;;;;;;26.05;36.89;99886.63;1586837;90;21037;-88
2022/06/23 12:48:27;;;;;;;1.05;0.55;;;;;;;26.14;36.20;99895.17;1587018;90;21623;-88
2022/06/23 12:51:17;;;;;;;1.10;0.62;;;;;;;25.98;36.45;99892.09;1586743;90;21078;-89
2022/06/23 12:54:11;;;;;;;2.58;0.65;;;;;;;26.21;37.02;99891.10;1586708;90;21066;-93
2022/06/23 12:57:07;;;;;;;0.60;0.50;;;;;;;26.35;36.96;99890.39;1586684;90;21125;-86